Terminal Aerodrome Forecast
Issued by NWS

Home | Current Version | Previous Version | Text Only | Print | Product List | Glossary Off
Versions: 1 2 3 4 5 6 7 8 9 10 11 12 13 14 15 16 17 18 19 20 21 22 23 24 25 26 27 28 29 30

853
FTUS43 KLOT 272321
TAFDPA
TAF
KDPA 272321Z 2800/2824 04008KT 6SM BR OVC009
     FM280800 01008KT 6SM BR OVC009
     FM281600 02011KT P6SM OVC012
     FM282000 02011KT P6SM BKN020=

USA.gov is the U.S. government's official web portal to all federal, state and local government web resources and services.